createdAt,value
2018-08-06T00:00:01.557Z,2.50
2018-08-06T00:02:29.295Z,2.80
2018-08-06T00:04:57.036Z,2.60
2018-08-06T00:07:24.765Z,2.40
2018-08-06T00:09:52.511Z,2.47
2018-08-06T00:12:20.227Z,2.40
2018-08-06T00:14:47.961Z,2.03
2018-08-06T00:17:15.622Z,2.00
2018-08-06T00:19:43.322Z,1.87
2018-08-06T00:22:11.007Z,1.90
2018-08-06T00:24:38.672Z,1.80
2018-08-06T00:27:06.385Z,2.00
2018-08-06T00:29:34.047Z,1.73
2018-08-06T00:32:01.752Z,1.90
2018-08-06T00:34:29.407Z,1.87
2018-08-06T00:36:57.067Z,1.80
2018-08-06T00:39:26.109Z,1.50
2018-08-06T00:41:53.793Z,1.70
2018-08-06T00:44:21.495Z,2.03
2018-08-06T00:46:49.215Z,2.13
2018-08-06T00:49:16.846Z,1.80
2018-08-06T00:51:44.557Z,1.70
2018-08-06T00:54:12.201Z,1.60
2018-08-06T00:56:39.942Z,1.80
2018-08-06T00:59:07.540Z,1.70
2018-08-06T01:01:35.250Z,1.83
2018-08-06T01:04:02.826Z,1.60
2018-08-06T01:06:30.412Z,1.60
2018-08-06T01:08:58.308Z,1.93
2018-08-06T01:11:25.982Z,1.60
2018-08-06T01:13:53.646Z,1.60
2018-08-06T01:16:21.292Z,2.00
2018-08-06T01:18:49.037Z,1.73
2018-08-06T01:21:17.045Z,1.80
2018-08-06T01:23:45.376Z,1.90
2018-08-06T01:26:13.039Z,1.63
2018-08-06T01:28:40.680Z,1.97
2018-08-06T01:31:08.401Z,2.00
2018-08-06T01:33:36.003Z,1.67
2018-08-06T01:36:03.680Z,2.40
2018-08-06T01:38:32.002Z,2.53
2018-08-06T01:40:59.612Z,2.13
2018-08-06T01:43:28.288Z,2.10
2018-08-06T01:45:55.940Z,2.10
2018-08-06T01:48:23.536Z,1.70
2018-08-06T01:50:51.202Z,1.90
2018-08-06T01:53:18.906Z,1.97
2018-08-06T01:55:46.557Z,2.03
2018-08-06T01:58:14.256Z,2.13
2018-08-06T02:00:41.955Z,2.00
2018-08-06T02:03:09.606Z,2.07
2018-08-06T02:05:37.266Z,2.10
2018-08-06T02:08:05.142Z,2.13
2018-08-06T02:10:33.700Z,2.20
2018-08-06T02:13:01.435Z,2.60
2018-08-06T02:15:29.112Z,2.70
2018-08-06T02:17:56.677Z,2.70
2018-08-06T02:20:24.821Z,2.93
2018-08-06T02:22:52.696Z,2.67
2018-08-06T02:25:20.241Z,2.87
2018-08-06T02:27:47.947Z,2.93
2018-08-06T02:30:16.281Z,3.20
2018-08-06T02:32:44.068Z,3.13
2018-08-06T02:35:13.007Z,3.10
2018-08-06T02:37:41.933Z,3.20
2018-08-06T02:40:12.512Z,3.30
2018-08-06T02:42:40.432Z,3.60
2018-08-06T02:45:09.004Z,3.30
2018-08-06T02:47:37.306Z,3.53
2018-08-06T02:50:05.974Z,3.27
2018-08-06T02:52:33.693Z,3.43
2018-08-06T02:55:01.452Z,3.17
2018-08-06T02:57:29.210Z,4.00
2018-08-06T02:59:57.051Z,3.77
2018-08-06T03:02:24.746Z,3.60
2018-08-06T03:04:53.241Z,3.30
2018-08-06T03:07:20.901Z,3.70
2018-08-06T03:09:48.596Z,4.03
2018-08-06T03:12:16.337Z,3.77
2018-08-06T03:14:44.043Z,4.33
2018-08-06T03:17:11.773Z,4.00
2018-08-06T03:19:39.481Z,4.13
2018-08-06T03:22:07.022Z,4.80
2018-08-06T03:24:34.687Z,4.50
2018-08-06T03:27:02.335Z,4.20
2018-08-06T03:29:29.946Z,4.17
2018-08-06T03:31:57.591Z,4.50
2018-08-06T03:34:25.393Z,4.87
2018-08-06T03:36:53.054Z,4.37
2018-08-06T03:39:20.608Z,4.53
2018-08-06T03:41:48.848Z,4.83
2018-08-06T03:44:16.568Z,4.73
2018-08-06T03:46:44.311Z,4.40
2018-08-06T03:49:12.009Z,4.53
2018-08-06T03:51:39.672Z,5.50
2018-08-06T03:54:07.383Z,5.07
2018-08-06T03:56:35.062Z,4.80
2018-08-06T03:59:02.962Z,4.67
2018-08-06T04:01:30.661Z,4.50
2018-08-06T04:03:58.323Z,5.20
2018-08-06T04:06:25.895Z,5.47
2018-08-06T04:08:53.589Z,5.60
2018-08-06T04:11:21.131Z,5.47
2018-08-06T04:13:48.857Z,5.50
2018-08-06T04:16:16.571Z,5.37
2018-08-06T04:18:44.967Z,5.00
2018-08-06T04:21:12.557Z,5.40
2018-08-06T04:23:40.783Z,5.47
2018-08-06T04:26:08.503Z,5.10
2018-08-06T04:28:36.991Z,5.10
2018-08-06T04:31:04.836Z,5.33
2018-08-06T04:33:32.439Z,4.87
2018-08-06T04:36:00.151Z,5.13
2018-08-06T04:38:28.585Z,5.60
2018-08-06T04:40:56.239Z,5.80
2018-08-06T04:43:23.872Z,5.27
2018-08-06T04:45:51.520Z,5.30
2018-08-06T04:48:19.688Z,4.90
2018-08-06T04:50:47.339Z,5.37
2018-08-06T04:53:15.028Z,5.20
2018-08-06T04:55:43.337Z,5.30
2018-08-06T04:58:11.000Z,4.97
2018-08-06T05:00:38.627Z,5.40
2018-08-06T05:03:06.478Z,5.40
2018-08-06T05:05:34.021Z,5.40
2018-08-06T05:08:01.575Z,5.70
2018-08-06T05:10:29.202Z,5.43
2018-08-06T05:12:56.869Z,5.87
2018-08-06T05:15:24.709Z,5.03
2018-08-06T05:17:52.267Z,5.83
2018-08-06T05:20:20.538Z,5.60
2018-08-06T05:22:48.214Z,6.20
2018-08-06T05:25:15.892Z,5.60
2018-08-06T05:27:43.488Z,5.10
2018-08-06T05:30:12.441Z,5.73
2018-08-06T05:32:40.143Z,5.33
2018-08-06T05:35:07.919Z,5.70
2018-08-06T05:37:35.598Z,5.30
2018-08-06T05:40:03.905Z,5.37
2018-08-06T05:42:31.546Z,5.20
2018-08-06T05:44:59.226Z,5.17
2018-08-06T05:47:27.042Z,5.77
2018-08-06T05:49:54.739Z,5.53
2018-08-06T05:52:22.469Z,5.97
2018-08-06T05:54:50.304Z,5.77
2018-08-06T05:57:17.994Z,5.53
2018-08-06T05:59:45.712Z,5.57
2018-08-06T06:02:13.282Z,5.20
2018-08-06T06:04:40.852Z,5.20
2018-08-06T06:07:08.637Z,6.13
2018-08-06T06:09:36.386Z,5.43
2018-08-06T06:12:04.176Z,6.70
2018-08-06T06:14:31.930Z,5.37
2018-08-06T06:16:59.693Z,5.33
2018-08-06T06:19:27.383Z,5.83
2018-08-06T06:21:55.075Z,5.70
2018-08-06T06:24:22.599Z,5.33
2018-08-06T06:26:50.395Z,4.90
2018-08-06T06:29:18.078Z,5.10
2018-08-06T06:31:45.761Z,5.27
2018-08-06T06:34:13.451Z,5.33
2018-08-06T06:50:49.852Z,5.00
2018-08-06T06:53:17.522Z,5.47
2018-08-06T06:55:45.223Z,4.90
2018-08-06T06:58:12.753Z,5.40
2018-08-06T07:00:40.453Z,5.33
2018-08-06T07:03:08.235Z,5.63
2018-08-06T07:05:35.869Z,4.87
2018-08-06T07:08:03.692Z,5.07
2018-08-06T07:10:31.455Z,5.47
2018-08-06T07:12:59.220Z,5.13
2018-08-06T07:15:26.925Z,4.87
2018-08-06T07:17:54.663Z,5.17
2018-08-06T07:20:22.426Z,5.10
2018-08-06T07:22:50.081Z,5.27
2018-08-06T07:25:17.793Z,4.93
2018-08-06T07:27:45.500Z,5.17
2018-08-06T07:30:14.193Z,5.33
2018-08-06T07:32:42.540Z,5.70
2018-08-06T07:35:11.443Z,5.20
2018-08-06T07:37:39.623Z,5.30
2018-08-06T07:40:09.224Z,5.13
2018-08-06T07:42:37.005Z,5.70
2018-08-06T07:45:07.189Z,5.13
2018-08-06T07:47:34.787Z,4.90
2018-08-06T07:50:02.645Z,5.60
2018-08-06T07:52:30.347Z,5.20
2018-08-06T07:54:58.098Z,5.23
2018-08-06T07:57:25.759Z,5.00
2018-08-06T07:59:53.445Z,5.40
2018-08-06T08:02:21.131Z,4.93
2018-08-06T08:04:48.909Z,4.87
2018-08-06T08:07:16.597Z,4.33
2018-08-06T08:09:44.292Z,4.33
2018-08-06T08:12:12.072Z,5.07
2018-08-06T08:14:39.757Z,4.50
2018-08-06T08:17:07.454Z,4.50
2018-08-06T08:19:35.148Z,4.00
2018-08-06T08:22:02.859Z,4.60
2018-08-06T08:24:30.468Z,4.60
2018-08-06T08:29:21.348Z,4.33
2018-08-06T08:31:49.052Z,4.53
2018-08-06T08:34:16.780Z,4.73
2018-08-06T08:36:44.485Z,4.70
2018-08-06T08:39:12.667Z,4.43
2018-08-06T08:41:40.353Z,4.90
2018-08-06T08:44:08.064Z,4.30
2018-08-06T08:46:35.793Z,4.73
2018-08-06T08:49:04.184Z,4.10
2018-08-06T08:51:31.700Z,4.40
2018-08-06T08:53:59.248Z,4.53
2018-08-06T08:56:27.110Z,4.63
2018-08-06T08:58:54.727Z,4.40
2018-08-06T09:01:22.425Z,4.60
2018-08-06T09:03:50.350Z,4.57
2018-08-06T09:06:17.929Z,4.70
2018-08-06T09:08:45.672Z,4.33
2018-08-06T09:11:13.420Z,4.80
2018-08-06T09:13:40.993Z,4.50
2018-08-06T09:16:08.634Z,4.22
2018-08-06T09:18:36.389Z,4.20
2018-08-06T09:21:04.064Z,3.95
2018-08-06T09:23:31.823Z,4.55
2018-08-06T09:25:59.740Z,4.83
2018-08-06T09:28:27.439Z,4.08
2018-08-06T09:30:55.114Z,5.17
2018-08-06T09:33:22.840Z,4.70
2018-08-06T09:35:50.464Z,4.92
2018-08-06T09:38:18.164Z,4.67
2018-08-06T09:40:45.756Z,4.35
2018-08-06T09:43:13.480Z,4.78
2018-08-06T09:45:41.159Z,4.67
2018-08-06T09:48:08.954Z,4.95
2018-08-06T09:50:37.524Z,4.90
2018-08-06T09:53:05.150Z,4.60
2018-08-06T09:55:32.775Z,4.72
2018-08-06T09:58:00.313Z,4.67
2018-08-06T10:00:33.745Z,4.67
2018-08-06T10:03:02.179Z,5.12
2018-08-06T10:05:30.577Z,4.72
2018-08-06T10:07:58.305Z,4.50
2018-08-06T10:10:26.264Z,4.87
2018-08-06T10:12:53.999Z,4.78
2018-08-06T10:15:22.043Z,5.03
2018-08-06T10:17:51.351Z,4.35
2018-08-06T10:20:22.090Z,4.60
2018-08-06T10:22:50.050Z,4.60
2018-08-06T10:25:17.810Z,4.17
2018-08-06T10:27:47.739Z,4.22
2018-08-06T10:30:22.557Z,4.30
2018-08-06T10:32:50.217Z,4.28
2018-08-06T10:35:18.860Z,4.12
2018-08-06T10:37:47.156Z,4.28
2018-08-06T10:40:17.443Z,4.20
2018-08-06T10:42:46.016Z,4.28
2018-08-06T10:45:15.896Z,4.17
2018-08-06T10:47:43.602Z,3.87
2018-08-06T10:50:11.710Z,3.85
2018-08-06T10:52:39.496Z,4.12
2018-08-06T10:55:08.219Z,4.17
2018-08-06T10:57:36.545Z,3.98
2018-08-06T11:00:08.189Z,3.87
2018-08-06T11:02:35.910Z,3.95
2018-08-06T11:05:05.404Z,4.22
2018-08-06T11:07:33.085Z,3.67
2018-08-06T11:10:00.746Z,3.70
2018-08-06T11:12:28.465Z,4.08
2018-08-06T11:14:56.104Z,3.83
2018-08-06T11:17:23.866Z,3.90
2018-08-06T11:19:51.511Z,4.03
2018-08-06T11:22:19.216Z,3.58
2018-08-06T11:24:46.906Z,3.90
2018-08-06T11:27:14.580Z,4.05
2018-08-06T11:29:42.286Z,4.15
2018-08-06T11:32:10.015Z,4.00
2018-08-06T11:34:54.676Z,3.67
2018-08-06T11:37:23.370Z,3.87
2018-08-06T11:40:03.710Z,3.35
2018-08-06T11:42:32.025Z,3.87
2018-08-06T11:44:59.726Z,3.92
2018-08-06T11:47:27.452Z,4.22
2018-08-06T11:49:55.165Z,4.17
2018-08-06T11:52:22.855Z,4.53
2018-08-06T11:54:50.681Z,5.22
2018-08-06T11:57:18.352Z,4.70
2018-08-06T11:59:46.078Z,4.60
2018-08-06T12:02:13.909Z,4.65
2018-08-06T12:07:38.467Z,4.55
2018-08-06T12:10:09.627Z,4.40
2018-08-06T12:15:23.971Z,4.45
2018-08-06T12:17:51.652Z,4.37
2018-08-06T12:20:20.287Z,4.58
2018-08-06T12:23:10.408Z,4.72
2018-08-06T12:25:38.121Z,4.50
2018-08-06T12:28:05.699Z,4.37
2018-08-06T12:30:33.469Z,4.65
2018-08-06T12:33:00.985Z,4.92
2018-08-06T12:35:28.776Z,4.70
2018-08-06T12:37:56.412Z,4.33
2018-08-06T12:40:24.161Z,4.97
2018-08-06T12:42:51.868Z,4.08
2018-08-06T12:45:19.549Z,4.40
2018-08-06T12:47:47.703Z,4.42
2018-08-06T12:50:16.205Z,4.40
2018-08-06T12:52:44.143Z,4.20
2018-08-06T12:55:13.070Z,4.58
2018-08-06T12:57:41.534Z,4.35
2018-08-06T13:00:20.201Z,3.80
2018-08-06T13:02:48.623Z,4.30
2018-08-06T13:05:16.674Z,4.05
2018-08-06T13:07:44.272Z,4.20
2018-08-06T13:10:12.880Z,4.22
2018-08-06T13:12:40.636Z,4.05
2018-08-06T13:15:10.227Z,4.58
2018-08-06T13:17:38.041Z,4.33
2018-08-06T13:20:06.279Z,4.10
2018-08-06T13:22:34.045Z,4.20
2018-08-06T13:25:01.841Z,3.90
2018-08-06T13:27:29.995Z,4.15
2018-08-06T13:29:57.680Z,3.92
2018-08-06T13:32:25.421Z,4.08
2018-08-06T13:34:53.096Z,4.17
2018-08-06T13:37:20.795Z,4.22
2018-08-06T13:39:48.585Z,4.10
2018-08-06T13:42:16.175Z,3.90
2018-08-06T13:44:43.753Z,3.95
2018-08-06T13:47:11.286Z,4.08
2018-08-06T13:49:39.070Z,3.77
2018-08-06T13:52:06.776Z,3.95
2018-08-06T13:54:34.545Z,3.75
2018-08-06T13:57:02.228Z,3.47
2018-08-06T13:59:30.032Z,4.30
2018-08-06T14:01:58.300Z,4.00
2018-08-06T14:04:26.110Z,4.00
2018-08-06T14:06:53.924Z,4.03
2018-08-06T14:09:21.625Z,4.12
2018-08-06T14:11:49.292Z,4.35
2018-08-06T14:14:16.932Z,4.17
2018-08-06T14:16:44.650Z,4.53
2018-08-06T14:19:12.368Z,4.10
2018-08-06T14:21:40.126Z,4.28
2018-08-06T14:24:07.835Z,4.22
2018-08-06T14:26:35.582Z,4.42
2018-08-06T14:29:03.315Z,4.15
2018-08-06T14:31:31.173Z,4.30
2018-08-06T14:33:58.662Z,4.15
2018-08-06T14:36:26.394Z,4.45
2018-08-06T14:38:54.692Z,4.22
2018-08-06T14:41:22.256Z,3.95
2018-08-06T14:43:49.842Z,4.40
2018-08-06T14:46:17.537Z,4.55
2018-08-06T14:48:45.146Z,4.05
2018-08-06T14:51:12.893Z,3.90
2018-08-06T14:53:40.590Z,3.87
2018-08-06T14:56:08.351Z,4.70
2018-08-06T14:58:36.033Z,4.00
2018-08-06T15:01:03.846Z,4.50
2018-08-06T15:03:31.547Z,3.80
2018-08-06T15:05:59.227Z,4.10
2018-08-06T15:08:26.891Z,3.65
2018-08-06T15:10:54.656Z,4.17
2018-08-06T15:13:22.258Z,3.92
2018-08-06T15:15:49.952Z,4.30
2018-08-06T15:18:17.719Z,3.90
2018-08-06T15:20:46.151Z,4.33
2018-08-06T15:23:13.912Z,4.00
2018-08-06T15:25:41.649Z,4.30
2018-08-06T15:28:09.361Z,4.17
2018-08-06T15:30:37.180Z,4.42
2018-08-06T15:33:04.986Z,4.53
2018-08-06T15:35:32.651Z,4.03
2018-08-06T15:38:00.411Z,4.30
2018-08-06T15:40:28.216Z,4.28
2018-08-06T15:42:55.946Z,4.62
2018-08-06T15:45:24.273Z,4.60
2018-08-06T15:47:51.956Z,4.70
2018-08-06T15:50:20.680Z,4.20
2018-08-06T15:52:48.521Z,4.70
2018-08-06T15:55:16.067Z,4.30
2018-08-06T15:57:43.887Z,4.33
2018-08-06T16:00:14.215Z,4.72
2018-08-06T16:02:43.032Z,4.62
2018-08-06T16:05:10.906Z,5.03
2018-08-06T16:07:38.971Z,5.12
2018-08-06T16:10:07.386Z,4.85
2018-08-06T16:12:35.061Z,5.03
2018-08-06T16:15:03.031Z,4.97
2018-08-06T16:17:30.777Z,4.97
2018-08-06T16:19:58.998Z,5.00
2018-08-06T16:22:26.786Z,5.00
2018-08-06T16:24:54.436Z,5.10
2018-08-06T16:27:22.111Z,4.58
2018-08-06T16:29:49.750Z,5.00
2018-08-06T16:32:18.324Z,4.70
2018-08-06T16:34:46.151Z,4.87
2018-08-06T16:37:13.943Z,5.00
2018-08-06T16:39:41.692Z,4.92
2018-08-06T16:42:09.346Z,4.78
2018-08-06T16:44:36.932Z,4.80
2018-08-06T16:47:04.665Z,4.85
2018-08-06T16:49:32.492Z,4.85
2018-08-06T16:52:00.257Z,5.20
2018-08-06T16:54:28.046Z,5.47
2018-08-06T16:56:55.746Z,4.85
2018-08-06T16:59:24.092Z,5.03
2018-08-06T17:01:51.813Z,5.28
2018-08-06T17:04:19.398Z,5.42
2018-08-06T17:06:47.056Z,5.22
2018-08-06T17:09:15.291Z,5.25
2018-08-06T17:11:43.082Z,5.03
2018-08-06T17:14:10.854Z,5.03
2018-08-06T17:16:38.563Z,5.35
2018-08-06T17:19:06.194Z,5.22
2018-08-06T17:21:33.820Z,5.40
2018-08-06T17:24:01.553Z,5.40
2018-08-06T17:26:29.167Z,5.43
2018-08-06T17:28:56.907Z,5.87
2018-08-06T17:31:24.640Z,5.20
2018-08-06T17:33:52.647Z,5.25
2018-08-06T17:36:20.434Z,4.90
2018-08-06T17:38:48.183Z,5.33
2018-08-06T17:41:15.783Z,5.40
2018-08-06T17:43:43.445Z,5.87
2018-08-06T17:46:11.142Z,5.37
2018-08-06T17:48:38.894Z,5.80
2018-08-06T17:51:06.598Z,5.33
2018-08-06T17:53:34.313Z,5.70
2018-08-06T17:56:02.028Z,5.63
2018-08-06T17:58:29.751Z,5.57
2018-08-06T18:00:57.336Z,5.40
2018-08-06T18:03:25.111Z,5.37
2018-08-06T18:05:52.803Z,5.40
2018-08-06T18:08:20.583Z,5.27
2018-08-06T18:10:48.305Z,5.53
2018-08-06T18:13:16.003Z,5.33
2018-08-06T18:15:43.678Z,5.10
2018-08-06T18:18:11.457Z,4.83
2018-08-06T18:20:39.180Z,4.90
2018-08-06T18:23:06.910Z,5.33
2018-08-06T18:25:34.506Z,5.77
2018-08-06T18:28:02.243Z,5.30
2018-08-06T18:30:29.927Z,5.37
2018-08-06T18:32:57.532Z,4.90
2018-08-06T18:35:25.288Z,5.13
2018-08-06T18:37:52.849Z,5.27
2018-08-06T18:40:21.321Z,5.17
2018-08-06T18:42:49.027Z,5.33
2018-08-06T18:45:18.066Z,5.50
2018-08-06T18:47:46.532Z,5.33
2018-08-06T18:50:15.297Z,5.40
2018-08-06T18:52:44.247Z,5.30
2018-08-06T18:55:13.008Z,4.87
2018-08-06T18:57:41.103Z,5.10
2018-08-06T19:00:17.081Z,5.27
2018-08-06T19:02:44.992Z,4.90
2018-08-06T19:05:12.609Z,4.63
2018-08-06T19:07:40.744Z,5.37
2018-08-06T19:10:09.418Z,5.07
2018-08-06T19:12:42.800Z,4.80
2018-08-06T19:15:10.805Z,5.13
2018-08-06T19:17:44.283Z,7.00
2018-08-06T19:20:11.922Z,6.93
2018-08-06T19:22:39.645Z,7.30
2018-08-06T19:25:13.250Z,7.23
2018-08-06T19:27:41.327Z,5.87
2018-08-06T19:30:09.224Z,6.17
2018-08-06T19:32:36.886Z,7.00
2018-08-06T19:35:04.771Z,5.80
2018-08-06T19:37:38.106Z,5.17
2018-08-06T19:40:06.399Z,5.43
2018-08-06T19:42:39.597Z,5.00
2018-08-06T19:45:07.262Z,5.03
2018-08-06T19:47:35.019Z,5.07
2018-08-06T19:50:08.532Z,5.37
2018-08-06T19:52:36.201Z,5.37
2018-08-06T19:55:09.903Z,5.20
2018-08-06T19:57:37.623Z,5.07
2018-08-06T20:00:07.377Z,5.07
2018-08-06T20:02:35.115Z,5.37
2018-08-06T20:05:02.932Z,4.93
2018-08-06T20:07:30.638Z,6.20
2018-08-06T20:09:58.334Z,6.17
2018-08-06T20:12:26.039Z,6.80
2018-08-06T20:14:53.736Z,6.70
2018-08-06T20:17:21.488Z,6.43
2018-08-06T20:19:49.289Z,6.43
2018-08-06T20:22:17.309Z,6.30
2018-08-06T20:24:45.986Z,5.93
2018-08-06T20:27:13.511Z,6.60
2018-08-06T20:29:41.252Z,6.23
2018-08-06T20:32:08.976Z,6.20
2018-08-06T20:34:36.709Z,6.37
2018-08-06T20:37:04.369Z,7.07
2018-08-06T20:39:32.151Z,5.97
2018-08-06T20:41:59.943Z,5.97
2018-08-06T20:44:27.662Z,6.00
2018-08-06T20:46:57.378Z,6.43
2018-08-06T20:49:25.703Z,6.10
2018-08-06T20:51:54.138Z,6.57
2018-08-06T20:54:22.683Z,6.03
2018-08-06T20:56:50.821Z,6.40
2018-08-06T20:59:20.421Z,6.20
2018-08-06T21:01:49.197Z,6.53
2018-08-06T21:04:18.373Z,6.93
2018-08-06T21:06:46.684Z,6.37
2018-08-06T21:09:14.840Z,6.40
2018-08-06T21:11:42.582Z,5.90
2018-08-06T21:14:10.352Z,6.77
2018-08-06T21:16:38.134Z,6.17
2018-08-06T21:19:05.881Z,7.13
2018-08-06T21:21:33.504Z,6.67
2018-08-06T21:24:02.587Z,6.33
2018-08-06T21:26:32.187Z,6.40
2018-08-06T21:29:00.784Z,6.50
2018-08-06T21:31:29.006Z,7.00
2018-08-06T21:33:57.252Z,6.80
2018-08-06T21:36:27.056Z,7.37
2018-08-06T21:38:55.791Z,8.13
2018-08-06T21:41:24.083Z,7.53
2018-08-06T21:43:53.137Z,8.53
2018-08-06T21:48:52.554Z,9.27
2018-08-06T21:51:21.521Z,9.23
2018-08-06T21:53:49.931Z,9.53
2018-08-06T21:56:18.692Z,7.60
2018-08-06T21:58:48.593Z,7.07
2018-08-06T22:01:16.844Z,8.70
2018-08-06T22:03:45.254Z,9.00
2018-08-06T22:06:12.812Z,8.57
2018-08-06T22:08:40.503Z,8.90
2018-08-06T22:11:08.477Z,8.47
2018-08-06T22:13:36.208Z,8.40
2018-08-06T22:16:04.226Z,7.90
2018-08-06T22:18:32.372Z,8.33
2018-08-06T22:21:00.159Z,8.70
2018-08-06T22:23:27.818Z,8.67
2018-08-06T22:25:55.708Z,8.20
2018-08-06T22:28:23.818Z,8.53
2018-08-06T22:30:51.652Z,8.03
2018-08-06T22:33:19.299Z,8.87
2018-08-06T22:35:46.993Z,9.33
2018-08-06T22:38:14.674Z,7.70
2018-08-06T22:40:42.382Z,8.47
2018-08-06T22:43:10.049Z,7.43
2018-08-06T22:45:38.572Z,7.60
2018-08-06T22:48:06.299Z,7.27
2018-08-06T22:50:34.074Z,7.77
2018-08-06T22:53:02.732Z,8.40
2018-08-06T22:55:40.449Z,7.53
2018-08-06T22:58:07.992Z,8.03
2018-08-06T23:00:35.705Z,8.03
2018-08-06T23:03:03.519Z,7.20
2018-08-06T23:05:31.271Z,7.27
2018-08-06T23:07:58.834Z,6.73
2018-08-06T23:10:26.593Z,7.40
2018-08-06T23:12:54.142Z,6.93
2018-08-06T23:15:21.664Z,6.73
2018-08-06T23:17:49.440Z,7.20
2018-08-06T23:20:16.932Z,6.90
2018-08-06T23:22:44.742Z,7.43
2018-08-06T23:25:13.262Z,7.83
2018-08-06T23:27:40.997Z,7.17
2018-08-06T23:30:11.277Z,7.03
2018-08-06T23:32:39.355Z,7.70
2018-08-06T23:35:08.754Z,7.13
2018-08-06T23:37:36.418Z,6.90
2018-08-06T23:40:05.072Z,6.07
2018-08-06T23:42:32.689Z,6.20
2018-08-06T23:45:00.415Z,6.17
2018-08-06T23:47:28.025Z,5.73
2018-08-06T23:49:55.584Z,5.67
2018-08-06T23:52:23.309Z,5.87
2018-08-06T23:54:50.874Z,5.90
2018-08-06T23:57:19.201Z,6.00
2018-08-06T23:59:47.023Z,5.67
